createdAt,value
2022-08-05T00:01:48.531Z,24.37
2022-08-05T00:04:18.264Z,24.35
2022-08-05T00:06:47.244Z,24.33
2022-08-05T00:09:15.972Z,24.32
2022-08-05T00:11:49.514Z,24.30
2022-08-05T00:14:28.903Z,24.28
2022-08-05T00:16:57.930Z,24.26
2022-08-05T00:19:33.595Z,24.23
2022-08-05T00:22:11.203Z,24.22
2022-08-05T00:24:46.976Z,24.20
2022-08-05T00:27:23.140Z,24.18
2022-08-05T00:30:05.651Z,24.16
2022-08-05T00:32:39.571Z,24.14
2022-08-05T00:35:08.819Z,24.13
2022-08-05T00:37:53.145Z,24.11
2022-08-05T00:40:28.201Z,24.09
2022-08-05T00:42:59.515Z,24.07
2022-08-05T00:45:42.884Z,24.05
2022-08-05T00:48:14.617Z,24.03
2022-08-05T00:50:46.083Z,24.03
2022-08-05T00:54:00.618Z,24.01
2022-08-05T00:56:09.645Z,23.99
2022-08-05T00:58:38.141Z,23.98
2022-08-05T01:01:08.945Z,23.96
2022-08-05T01:03:39.580Z,23.94
2022-08-05T01:06:14.204Z,23.93
2022-08-05T01:08:44.636Z,23.91
2022-08-05T01:11:33.503Z,23.90
2022-08-05T01:14:27.915Z,23.88
2022-08-05T01:17:06.305Z,23.86
2022-08-05T01:20:03.989Z,23.85
2022-08-05T01:22:54.043Z,23.82
2022-08-05T01:25:55.680Z,23.80
2022-08-05T01:28:44.360Z,23.78
2022-08-05T01:31:30.167Z,23.76
2022-08-05T01:34:09.960Z,23.74
2022-08-05T01:36:54.009Z,23.72
2022-08-05T01:39:36.854Z,23.70
2022-08-05T01:42:13.829Z,23.68
2022-08-05T01:44:45.665Z,23.67
2022-08-05T01:47:23.945Z,23.64
2022-08-05T01:50:01.463Z,23.62
2022-08-05T01:52:32.300Z,23.60
2022-08-05T01:55:06.771Z,23.59
2022-08-05T01:58:09.945Z,23.57
2022-08-05T02:00:31.002Z,23.55
2022-08-05T02:03:24.437Z,23.54
2022-08-05T02:05:57.864Z,23.52
2022-08-05T02:08:31.036Z,23.51
2022-08-05T02:11:11.741Z,23.49
2022-08-05T02:14:04.925Z,23.47
2022-08-05T02:16:55.448Z,23.46
2022-08-05T02:19:42.696Z,23.44
2022-08-05T02:22:31.729Z,23.43
2022-08-05T02:25:13.421Z,23.40
2022-08-05T02:27:58.927Z,23.39
2022-08-05T02:30:35.609Z,23.38
2022-08-05T02:33:05.056Z,23.35
2022-08-05T02:35:37.659Z,23.34
2022-08-05T02:38:19.314Z,23.32
2022-08-05T02:40:47.662Z,23.30
2022-08-05T02:43:16.958Z,23.27
2022-08-05T02:45:52.501Z,23.25
2022-08-05T02:48:29.042Z,23.22
2022-08-05T02:51:00.455Z,23.19
2022-08-05T02:53:38.961Z,23.16
2022-08-05T02:56:15.926Z,23.14
2022-08-05T02:58:51.503Z,23.11
2022-08-05T03:01:24.869Z,23.09
2022-08-05T03:04:11.753Z,23.06
2022-08-05T03:06:54.185Z,23.04
2022-08-05T03:09:38.290Z,23.00
2022-08-05T03:12:29.558Z,22.98
2022-08-05T03:14:58.048Z,22.94
2022-08-05T03:17:26.438Z,22.89
2022-08-05T03:19:55.160Z,22.86
2022-08-05T03:22:32.451Z,22.83
2022-08-05T03:25:33.974Z,22.78
2022-08-05T03:27:59.179Z,22.74
2022-08-05T03:30:33.587Z,22.68
2022-08-05T03:33:03.347Z,22.63
2022-08-05T03:35:33.754Z,22.58
2022-08-05T03:38:11.853Z,22.52
2022-08-05T03:40:45.168Z,22.46
2022-08-05T03:44:08.816Z,22.40
2022-08-05T03:46:05.316Z,22.34
2022-08-05T03:48:36.740Z,22.29
2022-08-05T03:52:36.466Z,22.23
2022-08-05T03:55:52.963Z,22.17
2022-08-05T03:57:42.042Z,22.11
2022-08-05T04:00:15.858Z,22.05
2022-08-05T04:02:58.105Z,22.01
2022-08-05T04:05:34.432Z,21.97
2022-08-05T04:08:14.366Z,21.96
2022-08-05T04:10:53.570Z,21.98
2022-08-05T04:13:22.910Z,22.02
2022-08-05T04:16:02.956Z,22.06
2022-08-05T04:18:34.493Z,22.14
2022-08-05T04:21:06.083Z,22.23
2022-08-05T04:23:58.426Z,22.33
2022-08-05T04:26:23.793Z,22.45
2022-08-05T04:28:52.673Z,22.55
2022-08-05T04:31:20.641Z,22.67
2022-08-05T04:34:17.734Z,22.80
2022-08-05T04:36:49.721Z,22.96
2022-08-05T04:39:21.754Z,23.12
2022-08-05T04:41:51.156Z,23.27
2022-08-05T04:44:29.609Z,23.41
2022-08-05T04:46:59.589Z,23.57
2022-08-05T04:49:38.465Z,23.72
2022-08-05T04:52:16.619Z,23.88
2022-08-05T04:54:46.872Z,23.98
2022-08-05T04:57:17.441Z,24.05
2022-08-05T04:59:45.336Z,24.09
2022-08-05T05:02:41.346Z,24.13
2022-08-05T05:05:16.857Z,24.16
2022-08-05T05:08:01.460Z,24.18
2022-08-05T05:10:39.076Z,24.20
2022-08-05T05:13:14.065Z,24.22
2022-08-05T05:15:59.511Z,24.23
2022-08-05T05:18:33.770Z,24.24
2022-08-05T05:21:03.631Z,24.26
2022-08-05T05:24:02.168Z,24.28
2022-08-05T05:26:20.120Z,24.31
2022-08-05T05:28:56.994Z,24.34
2022-08-05T05:31:25.070Z,24.37
2022-08-05T05:33:59.203Z,24.40
2022-08-05T05:36:30.653Z,24.43
2022-08-05T05:39:01.003Z,24.46
2022-08-05T05:41:40.631Z,24.50
2022-08-05T05:44:36.811Z,24.54
2022-08-05T05:47:04.349Z,24.59
2022-08-05T05:49:44.070Z,24.65
2022-08-05T05:52:29.988Z,24.71
2022-08-05T05:55:16.574Z,24.78
2022-08-05T05:57:52.641Z,24.86
2022-08-05T06:00:29.567Z,24.92
2022-08-05T06:03:02.074Z,24.98
2022-08-05T06:05:29.968Z,25.05
2022-08-05T06:08:01.759Z,25.13
2022-08-05T06:10:34.480Z,25.22
2022-08-05T06:13:05.357Z,25.32
2022-08-05T06:16:28.320Z,25.42
2022-08-05T06:18:31.427Z,25.55
2022-08-05T06:21:00.394Z,25.67
2022-08-05T06:23:32.219Z,25.79
2022-08-05T06:26:21.614Z,25.95
2022-08-05T06:28:52.117Z,26.14
2022-08-05T06:31:22.024Z,26.38
2022-08-05T06:34:07.297Z,26.65
2022-08-05T06:36:57.366Z,26.92
2022-08-05T06:39:27.024Z,27.12
2022-08-05T06:42:02.014Z,27.28
2022-08-05T06:44:32.388Z,27.43
2022-08-05T06:47:02.243Z,27.58
2022-08-05T06:50:01.385Z,27.72
2022-08-05T06:52:38.242Z,27.81
2022-08-05T06:55:07.093Z,27.90
2022-08-05T06:57:58.221Z,28.02
2022-08-05T07:00:24.896Z,28.19
2022-08-05T07:03:02.496Z,28.39
2022-08-05T07:05:37.727Z,28.61
2022-08-05T07:08:10.967Z,28.89
2022-08-05T07:10:52.930Z,29.20
2022-08-05T07:13:57.212Z,29.60
2022-08-05T07:18:02.279Z,30.01
2022-08-05T07:22:28.184Z,30.68
2022-08-05T07:25:22.752Z,30.97
2022-08-05T07:27:58.374Z,31.26
2022-08-05T07:30:34.053Z,31.57
2022-08-05T07:33:05.092Z,31.88
2022-08-05T07:36:04.784Z,32.15
2022-08-05T07:38:34.149Z,32.42
2022-08-05T07:42:06.892Z,32.62
2022-08-05T07:43:59.943Z,32.88
2022-08-05T07:46:30.771Z,33.17
2022-08-05T07:49:05.469Z,33.50
2022-08-05T07:51:48.901Z,33.79
2022-08-05T07:54:31.287Z,34.12
2022-08-05T07:57:17.661Z,34.44
2022-08-05T07:59:51.211Z,34.73
2022-08-05T08:02:30.720Z,34.94
2022-08-05T08:05:00.025Z,35.11
2022-08-05T08:07:28.977Z,35.24
2022-08-05T08:10:07.599Z,35.38
2022-08-05T08:12:49.812Z,35.46
2022-08-05T08:15:18.443Z,35.57
2022-08-05T08:18:13.899Z,35.75
2022-08-05T08:21:02.044Z,35.95
2022-08-05T08:24:02.126Z,36.14
2022-08-05T08:26:29.560Z,36.29
2022-08-05T08:29:21.883Z,36.47
2022-08-05T08:31:49.003Z,36.68
2022-08-05T08:34:18.764Z,36.84
2022-08-05T08:37:01.731Z,37.04
2022-08-05T08:39:37.466Z,37.22
2022-08-05T08:42:15.248Z,37.32
2022-08-05T08:45:19.498Z,37.40
2022-08-05T08:48:06.776Z,37.55
2022-08-05T08:51:03.599Z,37.74
2022-08-05T08:53:28.872Z,37.85
2022-08-05T08:56:04.250Z,37.89
2022-08-05T08:58:37.593Z,38.00
2022-08-05T09:01:17.130Z,38.16
2022-08-05T09:03:55.596Z,38.34
2022-08-05T09:06:29.620Z,38.48
2022-08-05T09:09:01.085Z,38.60
2022-08-05T09:11:53.637Z,38.70
2022-08-05T09:14:56.692Z,38.81
2022-08-05T09:17:41.295Z,38.88
2022-08-05T09:20:02.558Z,38.99
2022-08-05T09:23:19.891Z,39.11
2022-08-05T09:26:01.505Z,39.32
2022-08-05T09:28:34.264Z,39.48
2022-08-05T09:31:23.417Z,39.64
2022-08-05T09:34:09.644Z,39.84
2022-08-05T09:36:54.679Z,39.88
2022-08-05T09:39:39.221Z,39.90
2022-08-05T09:42:23.992Z,39.97
2022-08-05T09:44:57.382Z,40.07
2022-08-05T09:47:48.002Z,40.15
2022-08-05T09:50:38.728Z,40.17
2022-08-05T09:53:08.817Z,40.19
2022-08-05T09:55:58.644Z,40.17
2022-08-05T09:58:26.012Z,40.12
2022-08-05T10:01:14.601Z,40.03
2022-08-05T10:04:00.667Z,39.98
2022-08-05T10:06:29.285Z,39.84
2022-08-05T10:09:27.650Z,39.67
2022-08-05T10:12:30.414Z,39.52
2022-08-05T10:15:36.787Z,39.38
2022-08-05T10:18:22.568Z,39.20
2022-08-05T10:20:55.523Z,39.03
2022-08-05T10:23:55.567Z,38.87
2022-08-05T10:26:17.476Z,38.70
2022-08-05T10:28:46.805Z,38.55
2022-08-05T10:32:49.009Z,38.40
2022-08-05T10:34:07.129Z,38.23
2022-08-05T10:36:41.630Z,38.06
2022-08-05T10:39:24.293Z,37.89
2022-08-05T10:42:11.971Z,37.78
2022-08-05T10:44:44.437Z,37.73
2022-08-05T10:47:26.531Z,37.72
2022-08-05T10:50:32.199Z,37.73
2022-08-05T10:53:04.154Z,37.73
2022-08-05T10:55:38.594Z,37.75
2022-08-05T10:58:20.738Z,37.79
2022-08-05T11:00:55.330Z,37.86
2022-08-05T11:03:30.992Z,37.93
2022-08-05T11:06:15.888Z,38.00
2022-08-05T11:09:16.911Z,38.06
2022-08-05T11:11:52.212Z,38.05
2022-08-05T11:17:58.829Z,38.15
2022-08-05T11:20:39.164Z,38.24
2022-08-05T11:24:03.876Z,38.30
2022-08-05T11:26:43.132Z,38.40
2022-08-05T11:29:36.410Z,38.49
2022-08-05T11:32:29.827Z,38.55
2022-08-05T11:34:58.074Z,38.60
2022-08-05T11:38:26.134Z,38.64
2022-08-05T11:41:34.206Z,38.71
2022-08-05T11:44:12.772Z,38.74
2022-08-05T11:47:11.980Z,38.77
2022-08-05T11:49:49.763Z,38.78
2022-08-05T11:52:29.270Z,38.79
2022-08-05T11:55:07.465Z,38.80
2022-08-05T11:58:08.351Z,38.76
2022-08-05T12:00:31.856Z,38.77
2022-08-05T12:03:28.818Z,38.83
2022-08-05T12:06:03.205Z,38.96
2022-08-05T12:08:49.843Z,39.05
2022-08-05T12:11:28.130Z,39.11
2022-08-05T12:14:04.027Z,39.19
2022-08-05T12:16:52.219Z,39.28
2022-08-05T12:20:27.202Z,39.37
2022-08-05T12:22:12.627Z,39.42
2022-08-05T12:24:49.385Z,39.44
2022-08-05T12:27:33.042Z,39.46
2022-08-05T12:30:15.313Z,39.48
2022-08-05T12:32:50.348Z,39.47
2022-08-05T12:35:21.673Z,39.39
2022-08-05T12:37:50.300Z,39.31
2022-08-05T12:40:26.704Z,39.26
2022-08-05T12:42:56.634Z,39.21
2022-08-05T12:45:36.963Z,39.16
2022-08-05T12:48:26.976Z,39.11
2022-08-05T12:51:21.809Z,39.05
2022-08-05T12:54:04.904Z,39.02
2022-08-05T12:56:51.009Z,39.02
2022-08-05T13:00:08.300Z,39.00
2022-08-05T13:02:27.231Z,38.93
2022-08-05T13:04:58.764Z,38.84
2022-08-05T13:10:19.611Z,38.71
2022-08-05T13:12:57.773Z,38.65
2022-08-05T13:15:41.076Z,38.57
2022-08-05T13:18:09.678Z,38.49
2022-08-05T13:20:40.417Z,38.43
2022-08-05T13:23:08.508Z,38.39
2022-08-05T13:25:51.670Z,38.36
2022-08-05T13:28:24.197Z,38.31
2022-08-05T13:30:53.423Z,38.28
2022-08-05T13:34:25.161Z,38.22
2022-08-05T13:36:10.357Z,38.13
2022-08-05T13:38:41.960Z,38.08
2022-08-05T13:41:11.754Z,38.05
2022-08-05T13:43:44.162Z,37.97
2022-08-05T13:46:30.798Z,37.93
2022-08-05T13:49:10.555Z,37.93
2022-08-05T13:51:45.755Z,37.88
2022-08-05T13:54:21.052Z,37.79
2022-08-05T13:56:53.539Z,37.71
2022-08-05T13:59:25.089Z,37.65
2022-08-05T14:02:00.331Z,37.57
2022-08-05T14:04:56.133Z,37.50
2022-08-05T14:07:59.657Z,37.40
2022-08-05T14:10:31.136Z,37.27
2022-08-05T14:12:59.960Z,37.16
2022-08-05T14:16:07.267Z,37.09
2022-08-05T14:18:23.011Z,37.03
2022-08-05T14:20:54.814Z,36.99
2022-08-05T14:23:25.762Z,36.94
2022-08-05T14:25:58.204Z,36.90
2022-08-05T14:28:29.302Z,36.88
2022-08-05T14:30:58.686Z,36.86
2022-08-05T14:33:26.868Z,36.81
2022-08-05T14:35:55.012Z,36.77
2022-08-05T14:38:31.961Z,36.72
2022-08-05T14:41:07.219Z,36.69
2022-08-05T14:43:58.911Z,36.64
2022-08-05T14:46:36.145Z,36.59
2022-08-05T14:49:07.632Z,36.54
2022-08-05T14:51:38.392Z,36.50
2022-08-05T14:54:27.982Z,36.44
2022-08-05T14:56:59.494Z,36.39
2022-08-05T14:59:29.599Z,36.35
2022-08-05T15:02:24.358Z,36.32
2022-08-05T15:04:52.855Z,36.31
2022-08-05T15:08:08.899Z,36.31
2022-08-05T15:10:09.785Z,36.29
2022-08-05T15:12:57.988Z,36.27
2022-08-05T15:15:54.065Z,36.24
2022-08-05T15:18:17.245Z,36.23
2022-08-05T15:20:46.025Z,36.22
2022-08-05T15:23:14.373Z,36.22
2022-08-05T15:25:52.971Z,36.21
2022-08-05T15:28:27.148Z,36.19
2022-08-05T15:30:56.221Z,36.15
2022-08-05T15:34:18.621Z,36.09
2022-08-05T15:36:17.214Z,36.03
2022-08-05T15:41:01.464Z,35.96
2022-08-05T15:41:55.984Z,35.89
2022-08-05T15:44:27.868Z,35.83
2022-08-05T15:46:55.975Z,35.78
2022-08-05T15:49:53.726Z,35.71
2022-08-05T15:52:16.369Z,35.66
2022-08-05T15:54:45.349Z,35.60
2022-08-05T15:57:14.970Z,35.55
2022-08-05T15:59:44.420Z,35.49
2022-08-05T16:02:14.757Z,35.44
2022-08-05T16:04:48.678Z,35.39
2022-08-05T16:07:16.610Z,35.33
2022-08-05T16:09:46.071Z,35.28
2022-08-05T16:12:15.157Z,35.20
2022-08-05T16:14:43.891Z,35.10
2022-08-05T16:17:12.488Z,35.01
2022-08-05T16:20:04.390Z,34.91
2022-08-05T16:22:34.403Z,34.79
2022-08-05T16:25:05.263Z,34.69
2022-08-05T16:28:00.388Z,34.55
2022-08-05T16:30:29.158Z,34.38
2022-08-05T16:33:01.071Z,34.24
2022-08-05T16:35:32.055Z,34.11
2022-08-05T16:38:23.706Z,33.98
2022-08-05T16:40:55.288Z,33.85
2022-08-05T16:43:31.787Z,33.70
2022-08-05T16:46:13.119Z,33.57
2022-08-05T16:48:51.151Z,33.40
2022-08-05T16:51:18.977Z,33.23
2022-08-05T16:54:04.147Z,33.04
2022-08-05T16:56:37.041Z,32.83
2022-08-05T16:59:10.349Z,32.63
2022-08-05T17:01:54.043Z,32.43
2022-08-05T17:04:27.321Z,32.24
2022-08-05T17:07:03.180Z,32.07
2022-08-05T17:09:57.388Z,31.88
2022-08-05T17:12:50.319Z,31.73
2022-08-05T17:15:15.457Z,31.57
2022-08-05T17:17:58.654Z,31.44
2022-08-05T17:20:50.967Z,31.25
2022-08-05T17:23:42.018Z,31.09
2022-08-05T17:26:07.120Z,30.93
2022-08-05T17:28:37.318Z,30.79
2022-08-05T17:31:24.430Z,30.64
2022-08-05T17:34:00.267Z,30.47
2022-08-05T17:36:33.693Z,30.31
2022-08-05T17:39:05.097Z,30.12
2022-08-05T17:42:19.961Z,29.87
2022-08-05T17:44:40.581Z,29.63
2022-08-05T17:47:23.083Z,29.43
2022-08-05T17:50:03.650Z,29.25
2022-08-05T17:52:33.497Z,29.06
2022-08-05T17:55:03.022Z,28.89
2022-08-05T17:57:31.361Z,28.73
2022-08-05T18:00:04.972Z,28.61
2022-08-05T18:02:35.094Z,28.48
2022-08-05T18:05:07.640Z,28.36
2022-08-05T18:07:41.796Z,28.27
2022-08-05T18:10:20.454Z,28.18
2022-08-05T18:12:49.895Z,28.11
2022-08-05T18:15:18.115Z,28.03
2022-08-05T18:17:59.723Z,27.99
2022-08-05T18:20:32.724Z,27.93
2022-08-05T18:23:11.883Z,27.86
2022-08-05T18:25:44.086Z,27.81
2022-08-05T18:28:16.661Z,27.76
2022-08-05T18:30:51.301Z,27.70
2022-08-05T18:33:23.000Z,27.66
2022-08-05T18:36:03.320Z,27.61
2022-08-05T18:38:37.561Z,27.55
2022-08-05T18:41:53.561Z,27.51
2022-08-05T18:43:57.458Z,27.46
2022-08-05T18:46:36.233Z,27.42
2022-08-05T18:49:30.431Z,27.37
2022-08-05T18:52:18.748Z,27.32
2022-08-05T18:55:04.820Z,27.28
2022-08-05T18:57:42.912Z,27.23
2022-08-05T19:00:20.326Z,27.18
2022-08-05T19:02:48.721Z,27.14
2022-08-05T19:06:13.417Z,27.10
2022-08-05T19:08:13.378Z,27.05
2022-08-05T19:10:41.751Z,27.01
2022-08-05T19:13:12.369Z,26.97
2022-08-05T19:15:59.020Z,26.94
2022-08-05T19:18:32.130Z,26.91
2022-08-05T19:20:59.932Z,26.88
2022-08-05T19:24:07.210Z,26.85
2022-08-05T19:26:17.551Z,26.82
2022-08-05T19:28:46.839Z,26.80
2022-08-05T19:31:17.922Z,26.77
2022-08-05T19:33:56.124Z,26.75
2022-08-05T19:36:26.139Z,26.71
2022-08-05T19:39:00.555Z,26.68
2022-08-05T19:41:34.672Z,26.64
2022-08-05T19:44:19.245Z,26.61
2022-08-05T19:46:47.389Z,26.59
2022-08-05T19:49:18.839Z,26.56
2022-08-05T19:52:08.266Z,26.53
2022-08-05T19:54:35.787Z,26.50
2022-08-05T19:57:12.449Z,26.46
2022-08-05T19:59:56.736Z,26.44
2022-08-05T20:02:35.873Z,26.41
2022-08-05T20:05:06.157Z,26.37
2022-08-05T20:07:48.160Z,26.35
2022-08-05T20:10:17.528Z,26.32
2022-08-05T20:12:50.831Z,26.28
2022-08-05T20:15:23.261Z,26.24
2022-08-05T20:18:33.374Z,26.20
2022-08-05T20:20:58.258Z,26.16
2022-08-05T20:23:39.505Z,26.11
2022-08-05T20:26:23.349Z,26.05
2022-08-05T20:28:57.077Z,26.00
2022-08-05T20:31:36.773Z,25.95
2022-08-05T20:34:12.548Z,25.89
2022-08-05T20:36:43.445Z,25.84
2022-08-05T20:39:16.093Z,25.78
2022-08-05T20:41:47.978Z,25.73
2022-08-05T20:44:29.478Z,25.67
2022-08-05T20:47:04.575Z,25.63
2022-08-05T20:49:39.681Z,25.57
2022-08-05T20:52:08.991Z,25.52
2022-08-05T20:54:43.541Z,25.47
2022-08-05T20:57:44.135Z,25.41
2022-08-05T21:00:40.431Z,25.35
2022-08-05T21:03:06.350Z,25.77
2022-08-05T21:05:53.615Z,27.09
2022-08-05T21:08:41.285Z,27.57
2022-08-05T21:11:12.425Z,27.02
2022-08-05T21:13:47.821Z,26.60
2022-08-05T21:16:29.779Z,26.29
2022-08-05T21:19:01.992Z,26.08
2022-08-05T21:21:43.730Z,25.92
2022-08-05T21:24:15.351Z,26.18
2022-08-05T21:26:53.210Z,27.37
2022-08-05T21:29:26.527Z,27.35
2022-08-05T21:32:04.210Z,26.81
2022-08-05T21:34:32.924Z,26.42
2022-08-05T21:37:05.030Z,26.13
2022-08-05T21:39:34.781Z,25.89
2022-08-05T21:42:30.516Z,26.12
2022-08-05T21:44:57.561Z,27.67
2022-08-05T21:47:54.753Z,28.40
2022-08-05T21:50:15.144Z,27.75
2022-08-05T21:52:47.385Z,27.12
2022-08-05T21:55:15.550Z,26.69
2022-08-05T21:57:45.658Z,26.37
2022-08-05T22:00:15.032Z,26.10
2022-08-05T22:02:43.884Z,26.26
2022-08-05T22:05:14.244Z,27.48
2022-08-05T22:07:59.105Z,28.22
2022-08-05T22:10:28.349Z,27.64
2022-08-05T22:12:59.033Z,27.05
2022-08-05T22:15:57.209Z,26.62
2022-08-05T22:18:27.234Z,26.29
2022-08-05T22:20:55.869Z,26.39
2022-08-05T22:24:01.993Z,27.51
2022-08-05T22:26:50.502Z,28.16
2022-08-05T22:29:26.774Z,27.47
2022-08-05T22:32:55.066Z,26.89
2022-08-05T22:35:15.203Z,26.43
2022-08-05T22:37:59.231Z,26.59
2022-08-05T22:40:31.506Z,28.00
2022-08-05T22:42:59.706Z,28.71
2022-08-05T22:45:27.839Z,28.09
2022-08-05T22:48:01.625Z,27.39
2022-08-05T22:50:30.035Z,26.90
2022-08-05T22:52:58.080Z,26.57
2022-08-05T22:55:26.255Z,26.66
2022-08-05T22:57:55.102Z,28.02
2022-08-05T23:00:23.930Z,28.90
2022-08-05T23:03:57.873Z,28.32
2022-08-05T23:06:27.475Z,27.39
2022-08-05T23:08:56.710Z,26.95
2022-08-05T23:11:46.582Z,26.59
2022-08-05T23:14:22.726Z,26.74
2022-08-05T23:17:24.388Z,28.25
2022-08-05T23:20:02.369Z,28.96
2022-08-05T23:22:32.304Z,28.19
2022-08-05T23:25:00.990Z,27.51
2022-08-05T23:27:42.205Z,27.05
2022-08-05T23:30:11.163Z,26.64
2022-08-05T23:32:45.058Z,26.73
2022-08-05T23:35:13.246Z,28.14
2022-08-05T23:37:41.381Z,29.20
2022-08-05T23:40:13.667Z,28.54
2022-08-05T23:42:41.835Z,27.71
2022-08-05T23:45:15.955Z,27.14
2022-08-05T23:47:47.968Z,26.74
2022-08-05T23:50:16.990Z,26.41
2022-08-05T23:52:49.796Z,26.14
2022-08-05T23:55:19.299Z,26.31
2022-08-05T23:57:51.058Z,27.49
